Time;durP1;ratioP1;P1;durP2;ratioP2;P2;SDS_P1;SDS_P2;PMS_P1;PMS_P2;Temp;Humidity;BMP_temperature;BMP_pressure;BME280_temperature;BME280_humidity;BME280_pressure;Samples;Min_cycle;Max_cycle;Signal;HPM_P1;HPM_P2
2023/03/27 10:19:44;;;;;;;;;;;22.30;94.70;;;;;;5067039;28;19978;-78
2023/03/27 10:22:17;;;;;;;;;;;22.20;94.50;;;;;;5058127;28;19992;-79
2023/03/27 10:24:45;;;;;;;;;;;22.20;94.50;;;;;;5041635;28;19908;-79
2023/03/27 10:27:17;;;;;;;;;;;22.20;94.50;;;;;;5057730;28;19916;-79
2023/03/27 10:29:44;;;;;;;;;;;22.20;94.40;;;;;;5058473;28;19909;-79
2023/03/27 10:32:11;;;;;;;;;;;22.10;94.30;;;;;;5076659;28;19909;-79
2023/03/27 10:34:42;;;;;;;;;;;22.20;94.30;;;;;;5058110;28;19921;-79
2023/03/27 10:37:19;;;;;;;;;;;22.10;94.30;;;;;;5057947;28;19920;-79
2023/03/27 10:39:46;;;;;;;;;;;22.10;94.20;;;;;;5075413;28;19912;-80
2023/03/27 10:42:13;;;;;;;;;;;22.00;94.30;;;;;;5051912;28;19952;-79
2023/03/27 10:44:40;;;;;;;;;;;22.00;94.30;;;;;;5050798;28;19915;-79
2023/03/27 10:47:26;;;;;;;;;;;22.00;94.30;;;;;;5055799;28;19916;-79
2023/03/27 10:49:56;;;;;;;;;;;22.00;94.30;;;;;;5055847;28;19916;-80
2023/03/27 10:52:24;;;;;;;;;;;22.00;94.30;;;;;;5056145;28;19919;-79
2023/03/27 10:54:52;;;;;;;;;;;22.00;94.30;;;;;;5057768;28;19971;-79
2023/03/27 10:57:33;;;;;;;;;;;21.90;94.20;;;;;;5075829;28;20344;-80
2023/03/27 11:00:26;;;;;;;;;;;21.90;94.30;;;;;;5058411;28;19916;-79
2023/03/27 11:03:16;;;;;;;;;;;22.00;94.30;;;;;;5074432;28;20322;-79
2023/03/27 11:05:44;;;;;;;;;;;21.90;94.30;;;;;;5071772;28;20311;-79
2023/03/27 11:08:12;;;;;;;;;;;22.00;94.20;;;;;;5057605;28;19944;-78
2023/03/27 11:10:40;;;;;;;;;;;21.90;94.20;;;;;;5057130;28;19995;-79
2023/03/27 11:13:22;;;;;;;;;;;22.00;94.20;;;;;;5075238;28;19913;-79
2023/03/27 11:15:49;;;;;;;;;;;22.00;94.20;;;;;;5075025;28;19920;-79
2023/03/27 18:31:56;;;;;;;;;;;20.90;92.90;;;;;;5038469;28;19936;-80
2023/03/27 18:34:22;;;;;;;;;;;20.90;92.90;;;;;;5031086;28;20414;-80
2023/03/27 18:36:50;;;;;;;;;;;20.80;92.90;;;;;;5032218;28;19913;-80
2023/03/27 18:39:17;;;;;;;;;;;20.80;92.80;;;;;;5035568;28;19913;-81
2023/03/27 18:41:44;;;;;;;;;;;20.80;92.90;;;;;;5035841;28;19909;-81
2023/03/27 18:44:11;;;;;;;;;;;20.90;93.00;;;;;;5036323;28;19925;-81
2023/03/27 18:46:38;;;;;;;;;;;20.80;93.00;;;;;;5035797;28;19913;-81
2023/03/27 18:49:05;;;;;;;;;;;20.80;93.10;;;;;;5035334;28;19913;-82
2023/03/27 18:51:32;;;;;;;;;;;20.80;93.10;;;;;;5036208;28;19963;-83
2023/03/27 18:53:58;;;;;;;;;;;20.80;93.30;;;;;;5035913;28;19968;-83
2023/03/27 18:56:25;;;;;;;;;;;20.80;93.30;;;;;;5035903;28;19916;-84
2023/03/27 18:58:52;;;;;;;;;;;20.80;93.30;;;;;;5035822;28;19956;-83
2023/03/27 19:01:20;;;;;;;;;;;20.80;93.40;;;;;;5036134;28;19999;-83
2023/03/27 19:03:46;;;;;;;;;;;20.80;93.40;;;;;;5036184;28;19913;-85
2023/03/27 19:06:13;;;;;;;;;;;20.80;93.40;;;;;;5035500;28;20366;-83
2023/03/27 19:08:42;;;;;;;;;;;20.80;93.50;;;;;;5034586;28;19921;-84
2023/03/27 19:11:09;;;;;;;;;;;20.80;93.60;;;;;;5034422;28;19909;-84
2023/03/27 19:13:36;;;;;;;;;;;20.80;93.50;;;;;;5035462;28;20305;-84
2023/03/27 19:16:03;;;;;;;;;;;20.80;93.50;;;;;;5035717;28;19979;-83
2023/03/27 19:18:30;;;;;;;;;;;20.80;93.60;;;;;;5035594;28;19909;-82
2023/03/27 19:20:59;;;;;;;;;;;20.80;93.50;;;;;;5034756;28;19909;-81
2023/03/27 19:23:26;;;;;;;;;;;20.80;93.60;;;;;;5017552;28;19920;-81
2023/03/27 19:25:53;;;;;;;;;;;20.80;93.50;;;;;;5037183;28;20363;-84
2023/03/27 19:28:20;;;;;;;;;;;20.80;93.50;;;;;;5035167;28;19976;-78
2023/03/27 19:30:47;;;;;;;;;;;20.80;93.50;;;;;;5040597;28;19921;-79
2023/03/27 19:33:14;;;;;;;;;;;20.80;93.40;;;;;;5045070;28;19920;-78
2023/03/27 19:35:41;;;;;;;;;;;20.80;93.50;;;;;;5054854;28;19921;-78
2023/03/27 19:38:08;;;;;;;;;;;20.80;93.50;;;;;;5037050;28;20389;-79
2023/03/27 19:40:34;;;;;;;;;;;20.80;93.50;;;;;;5054976;28;19948;-78
2023/03/27 19:43:01;;;;;;;;;;;20.80;93.50;;;;;;5054967;28;19992;-79
2023/03/27 19:45:28;;;;;;;;;;;20.80;93.50;;;;;;5054847;28;19920;-79
2023/03/27 19:47:55;;;;;;;;;;;20.80;93.50;;;;;;5054782;28;20000;-79
2023/03/27 19:50:21;;;;;;;;;;;20.80;93.50;;;;;;5055090;28;19916;-78
2023/03/27 19:52:48;;;;;;;;;;;20.80;93.50;;;;;;5054852;28;20382;-79
2023/03/27 19:55:18;;;;;;;;;;;20.80;93.60;;;;;;5054036;28;19948;-79
2023/03/27 19:57:45;;;;;;;;;;;20.80;93.50;;;;;;5054885;28;19960;-79
2023/03/27 20:00:14;;;;;;;;;;;20.80;93.50;;;;;;5054676;28;19909;-79
2023/03/27 20:02:42;;;;;;;;;;;20.80;93.50;;;;;;5054425;28;19908;-79
2023/03/27 20:05:09;;;;;;;;;;;20.80;93.50;;;;;;5054256;28;19918;-79
2023/03/27 20:07:36;;;;;;;;;;;20.80;93.50;;;;;;5054298;28;19909;-79
2023/03/27 20:10:03;;;;;;;;;;;20.80;93.50;;;;;;5054373;28;19934;-80
2023/03/27 20:12:30;;;;;;;;;;;20.90;93.60;;;;;;5054371;28;19909;-77
2023/03/27 20:14:56;;;;;;;;;;;20.90;93.50;;;;;;5054407;28;19923;-76
2023/03/27 20:17:23;;;;;;;;;;;20.90;93.50;;;;;;5053843;28;20001;-79
2023/03/27 20:19:50;;;;;;;;;;;20.90;93.40;;;;;;5054235;28;19909;-79
2023/03/27 20:22:19;;;;;;;;;;;20.90;93.30;;;;;;5053268;28;19909;-79
2023/03/27 20:24:46;;;;;;;;;;;20.90;93.30;;;;;;5073735;28;19923;-78
2023/03/27 20:27:13;;;;;;;;;;;20.90;93.30;;;;;;5074224;28;19962;-79
2023/03/27 20:29:40;;;;;;;;;;;20.90;93.30;;;;;;5073749;28;20372;-79
2023/03/27 20:32:07;;;;;;;;;;;20.90;93.30;;;;;;5074027;28;19955;-79
2023/03/27 20:34:34;;;;;;;;;;;20.90;93.30;;;;;;5056431;28;19916;-78
2023/03/27 20:37:02;;;;;;;;;;;20.90;93.30;;;;;;5073583;28;19909;-78
2023/03/27 20:39:29;;;;;;;;;;;21.00;93.30;;;;;;5073776;28;19919;-77
2023/03/27 20:41:59;;;;;;;;;;;21.00;93.30;;;;;;5048890;28;19971;-78
2023/03/27 20:44:35;;;;;;;;;;;21.00;93.30;;;;;;5036307;28;20000;-79
2023/03/27 20:47:09;;;;;;;;;;;21.00;93.40;;;;;;5053731;28;19995;-75
2023/03/27 20:49:37;;;;;;;;;;;21.10;93.30;;;;;;5028622;28;19913;-78
2023/03/27 20:52:05;;;;;;;;;;;21.10;93.30;;;;;;5073458;28;20416;-77
2023/03/27 20:54:32;;;;;;;;;;;21.10;93.20;;;;;;5066011;28;19952;-75
2023/03/27 20:57:00;;;;;;;;;;;21.20;93.30;;;;;;5052865;28;20345;-86
2023/03/27 20:59:27;;;;;;;;;;;21.20;93.10;;;;;;5052683;28;20008;-80
2023/03/27 21:01:53;;;;;;;;;;;21.30;93.10;;;;;;5053282;28;19917;-83
2023/03/27 21:04:20;;;;;;;;;;;21.20;92.80;;;;;;5052033;28;19966;-79
2023/03/27 21:06:47;;;;;;;;;;;21.20;92.50;;;;;;5024199;28;19986;-77
2023/03/27 21:09:14;;;;;;;;;;;21.20;92.30;;;;;;5059252;28;19913;-75
2023/03/27 21:11:40;;;;;;;;;;;21.30;92.30;;;;;;5072735;28;19918;-76
2023/03/27 21:14:07;;;;;;;;;;;21.30;92.30;;;;;;5071942;28;19916;-76
2023/03/27 21:16:34;;;;;;;;;;;21.30;92.10;;;;;;5037855;28;19915;-76
2023/03/27 21:19:01;;;;;;;;;;;21.30;91.90;;;;;;5072902;28;19917;-76
2023/03/27 21:21:27;;;;;;;;;;;21.30;91.80;;;;;;5055466;28;19919;-76
2023/03/27 21:23:54;;;;;;;;;;;21.30;91.70;;;;;;5055197;28;19962;-77
2023/03/27 21:26:21;;;;;;;;;;;21.30;91.70;;;;;;5072792;28;19954;-77
2023/03/27 21:28:51;;;;;;;;;;;21.30;91.70;;;;;;5072763;28;19916;-77
2023/03/27 21:31:18;;;;;;;;;;;21.40;91.70;;;;;;5036645;28;20379;-77
2023/03/27 21:33:45;;;;;;;;;;;21.40;91.60;;;;;;5052397;28;19920;-77
2023/03/27 21:36:12;;;;;;;;;;;21.40;91.80;;;;;;5052292;28;19967;-77
2023/03/27 21:38:38;;;;;;;;;;;21.40;91.70;;;;;;5052940;28;19909;-77
2023/03/27 21:41:05;;;;;;;;;;;21.50;91.70;;;;;;5052505;28;20294;-75
2023/03/27 21:43:32;;;;;;;;;;;21.50;91.70;;;;;;5052515;28;19978;-75
2023/03/27 21:46:00;;;;;;;;;;;21.40;91.50;;;;;;5052585;28;20011;-77
2023/03/27 21:48:27;;;;;;;;;;;21.40;91.60;;;;;;5052925;28;19913;-77
2023/03/27 21:51:00;;;;;;;;;;;21.50;91.70;;;;;;5052640;28;19909;-78
2023/03/27 21:53:27;;;;;;;;;;;21.50;91.50;;;;;;5052157;28;20405;-76
2023/03/27 21:55:55;;;;;;;;;;;21.50;91.50;;;;;;5052360;28;20005;-77
2023/03/27 21:58:22;;;;;;;;;;;21.50;91.20;;;;;;5052433;28;19920;-77
2023/03/27 22:00:48;;;;;;;;;;;21.60;91.00;;;;;;5034558;28;20328;-77
2023/03/27 22:03:15;;;;;;;;;;;21.60;91.00;;;;;;5052460;28;19959;-77
2023/03/27 22:05:42;;;;;;;;;;;21.70;91.00;;;;;;5052194;28;19923;-76
2023/03/27 22:08:09;;;;;;;;;;;21.70;90.90;;;;;;5052386;28;20042;-80
2023/03/27 22:10:36;;;;;;;;;;;21.70;90.60;;;;;;5053681;28;19924;-78
2023/03/27 22:13:03;;;;;;;;;;;21.70;90.40;;;;;;5056603;28;19920;-79
2023/03/27 22:15:30;;;;;;;;;;;21.70;90.10;;;;;;5056548;28;19917;-77
2023/03/27 22:17:56;;;;;;;;;;;21.70;90.10;;;;;;5056071;28;19962;-76
2023/03/27 22:20:23;;;;;;;;;;;21.70;90.00;;;;;;5056462;28;19955;-76
2023/03/27 22:22:50;;;;;;;;;;;21.70;90.00;;;;;;5038580;28;19909;-76
2023/03/27 22:25:18;;;;;;;;;;;21.80;90.00;;;;;;5056564;28;19910;-77
2023/03/27 22:27:46;;;;;;;;;;;21.70;90.10;;;;;;5056325;28;19905;-77
2023/03/27 22:30:13;;;;;;;;;;;21.80;90.00;;;;;;5056018;28;19936;-78
2023/03/27 22:32:40;;;;;;;;;;;21.80;89.90;;;;;;5056464;28;19967;-78
2023/03/27 22:35:07;;;;;;;;;;;21.80;89.80;;;;;;5056090;28;19959;-78
2023/03/27 22:37:37;;;;;;;;;;;21.80;89.60;;;;;;5056223;28;19909;-78
2023/03/27 22:40:05;;;;;;;;;;;21.80;89.60;;;;;;5056068;28;19917;-80
2023/03/27 22:42:31;;;;;;;;;;;21.80;89.40;;;;;;5055786;28;19908;-79
2023/03/27 22:44:58;;;;;;;;;;;21.90;88.90;;;;;;5038149;28;19909;-79
2023/03/27 22:47:26;;;;;;;;;;;21.90;89.00;;;;;;5056013;28;19909;-84
2023/03/27 22:49:52;;;;;;;;;;;22.00;89.10;;;;;;5056076;28;19963;-79
2023/03/27 22:52:19;;;;;;;;;;;22.00;89.00;;;;;;5055964;28;19916;-77
2023/03/27 22:54:46;;;;;;;;;;;22.00;88.80;;;;;;5055850;28;19916;-78
2023/03/27 22:57:12;;;;;;;;;;;22.10;88.70;;;;;;5055916;28;20014;-78
2023/03/27 22:59:40;;;;;;;;;;;22.10;88.30;;;;;;5055802;28;19909;-77
2023/03/27 23:02:07;;;;;;;;;;;22.10;87.80;;;;;;5055515;28;19909;-78
2023/03/27 23:04:34;;;;;;;;;;;22.10;87.60;;;;;;5055618;28;19908;-79
2023/03/27 23:07:01;;;;;;;;;;;22.20;87.30;;;;;;5054926;28;19917;-78
2023/03/27 23:09:27;;;;;;;;;;;22.20;87.30;;;;;;5055475;28;19915;-78
2023/03/27 23:11:54;;;;;;;;;;;22.20;86.00;;;;;;5055471;28;20412;-78
2023/03/27 23:14:21;;;;;;;;;;;22.20;85.90;;;;;;5055405;28;19932;-78
2023/03/27 23:16:47;;;;;;;;;;;22.20;84.30;;;;;;5055315;28;19958;-78
2023/03/27 23:19:14;;;;;;;;;;;22.30;85.00;;;;;;5055256;28;20020;-77
2023/03/27 23:21:41;;;;;;;;;;;22.30;85.20;;;;;;5054732;28;19970;-78
2023/03/27 23:24:08;;;;;;;;;;;22.30;85.10;;;;;;5055094;28;19919;-77
2023/03/27 23:26:34;;;;;;;;;;;22.30;85.00;;;;;;5055466;28;19915;-77
2023/03/27 23:29:01;;;;;;;;;;;22.30;84.70;;;;;;5055330;28;19916;-77
2023/03/27 23:31:28;;;;;;;;;;;22.40;84.60;;;;;;5054729;28;19913;-76
2023/03/27 23:33:55;;;;;;;;;;;22.40;84.60;;;;;;5054939;28;19925;-78
2023/03/27 23:36:25;;;;;;;;;;;22.50;84.30;;;;;;5054100;28;20193;-77
2023/03/27 23:38:52;;;;;;;;;;;22.50;84.10;;;;;;5055104;28;19909;-77
2023/03/27 23:41:19;;;;;;;;;;;22.50;83.80;;;;;;5055021;28;20371;-77
2023/03/27 23:43:46;;;;;;;;;;;22.60;83.60;;;;;;5037240;28;19979;-77
2023/03/27 23:46:12;;;;;;;;;;;22.60;83.50;;;;;;5054686;28;20290;-78
2023/03/27 23:48:40;;;;;;;;;;;22.70;83.40;;;;;;5054787;28;19909;-77
2023/03/27 23:51:07;;;;;;;;;;;22.70;83.60;;;;;;5037277;28;19916;-77
2023/03/27 23:53:34;;;;;;;;;;;22.80;83.70;;;;;;5036243;28;19948;-78
2023/03/27 23:56:01;;;;;;;;;;;22.80;84.10;;;;;;5037036;28;19987;-77
2023/03/27 23:58:30;;;;;;;;;;;22.80;83.90;;;;;;5036932;28;19966;-80
